Time;durP1;ratioP1;P1;durP2;ratioP2;P2;SDS_P1;SDS_P2;PMS_P1;PMS_P2;Temp;Humidity;BMP_temperature;BMP_pressure;BME280_temperature;BME280_humidity;BME280_pressure;Samples;Min_cycle;Max_cycle;Signal;HPM_P1;HPM_P2
2021/12/01 00:01:03;;;;;;;7.22;4.30;;;8.20;72.10;;;;;;5014911;28;20053;-86
2021/12/01 00:03:29;;;;;;;6.60;4.07;;;8.20;71.90;;;;;;5015165;28;20029;-87
2021/12/01 00:05:55;;;;;;;6.53;4.20;;;8.00;72.40;;;;;;5015191;28;20026;-89
2021/12/01 00:08:22;;;;;;;5.72;3.85;;;7.80;73.40;;;;;;5019571;28;20052;-87
2021/12/01 00:10:48;;;;;;;6.50;3.70;;;7.80;73.10;;;;;;4995541;28;20049;-90
2021/12/01 00:13:16;;;;;;;6.95;4.72;;;7.60;73.30;;;;;;4994971;28;20154;-90
2021/12/01 00:15:45;;;;;;;6.72;4.50;;;7.90;73.30;;;;;;4995813;28;20125;-93
2021/12/01 00:18:12;;;;;;;7.32;4.47;;;8.50;71.70;;;;;;5013637;28;20112;-83
2021/12/01 00:20:42;;;;;;;7.72;4.43;;;8.30;71.20;;;;;;5014592;28;20027;-89
2021/12/01 00:23:09;;;;;;;7.38;4.10;;;8.10;72.70;;;;;;5014885;28;20021;-92
2021/12/01 00:25:39;;;;;;;7.03;4.18;;;7.80;73.10;;;;;;5014702;28;20080;-90
2021/12/01 00:28:06;;;;;;;6.55;3.85;;;7.60;73.70;;;;;;5026324;28;20425;-89
2021/12/01 00:30:35;;;;;;;6.80;4.00;;;7.70;73.00;;;;;;5051286;28;20031;-89
2021/12/01 00:33:02;;;;;;;6.82;3.95;;;7.90;72.90;;;;;;5050733;28;20033;-90
2021/12/01 00:35:28;;;;;;;5.82;3.85;;;7.80;73.30;;;;;;5051125;28;20049;-92
2021/12/01 00:37:53;;;;;;;6.43;3.83;;;8.20;72.40;;;;;;5040469;28;20064;-88
2021/12/01 00:40:19;;;;;;;7.43;4.05;;;8.40;71.20;;;;;;5014790;28;20018;-91
2021/12/01 00:42:45;;;;;;;8.88;4.05;;;8.40;71.00;;;;;;5014961;28;20053;-86
2021/12/01 00:45:20;;;;;;;6.47;3.85;;;8.60;70.50;;;;;;5014228;28;20025;-87
2021/12/01 00:48:10;;;;;;;5.57;3.40;;;8.40;70.40;;;;;;5026182;28;20025;-91
2021/12/01 00:50:36;;;;;;;7.07;3.95;;;8.40;71.20;;;;;;5034714;28;20014;-91
2021/12/01 00:53:04;;;;;;;5.78;3.85;;;8.70;70.30;;;;;;5050849;28;20412;-93
2021/12/01 00:55:31;;;;;;;6.72;4.20;;;8.90;70.00;;;;;;5044246;28;20025;-92
2021/12/01 00:57:57;;;;;;;6.60;4.15;;;8.60;69.90;;;;;;5014851;28;20041;-92
2021/12/01 01:00:25;;;;;;;6.10;3.70;;;8.60;70.00;;;;;;5014910;28;20026;-90
2021/12/01 01:02:51;;;;;;;5.70;3.70;;;8.80;69.50;;;;;;5020915;28;20017;-86
2021/12/01 01:05:17;;;;;;;7.50;4.13;;;8.70;69.60;;;;;;5050768;28;20021;-91
2021/12/01 01:07:43;;;;;;;6.35;3.90;;;8.70;70.20;;;;;;5049978;28;20056;-93
2021/12/01 01:18:25;;;;;;;5.40;3.22;;;8.80;69.70;;;;;;5035803;28;20117;-89
2021/12/01 01:20:51;;;;;;;6.32;3.83;;;8.70;69.60;;;;;;5050901;28;20412;-92
2021/12/01 01:23:21;;;;;;;6.70;3.80;;;8.70;69.60;;;;;;5050451;28;20448;-93
2021/12/01 01:25:47;;;;;;;5.90;3.70;;;9.00;69.00;;;;;;5050995;28;20029;-89
2021/12/01 01:28:13;;;;;;;5.63;3.38;;;9.00;69.40;;;;;;5051663;28;20033;-93
2021/12/01 01:30:47;;;;;;;6.88;3.30;;;9.10;68.10;;;;;;5050245;28;20037;-92
2021/12/01 01:33:12;;;;;;;5.70;3.58;;;9.10;68.80;;;;;;5049350;28;20037;-92
2021/12/01 01:35:38;;;;;;;7.50;4.00;;;9.00;68.10;;;;;;5049376;28;20028;-92
2021/12/01 01:38:04;;;;;;;6.35;4.15;;;9.50;68.40;;;;;;5050416;28;20029;-92
2021/12/01 01:40:34;;;;;;;5.68;3.58;;;9.50;67.50;;;;;;5049788;28;20461;-90
2021/12/01 01:43:00;;;;;;;5.28;3.03;;;9.50;68.00;;;;;;5041686;28;20029;-90
2021/12/01 01:45:30;;;;;;;4.70;3.17;;;9.60;67.50;;;;;;5014927;28;20022;-89
2021/12/01 01:48:03;;;;;;;5.35;3.30;;;9.40;67.40;;;;;;5013523;28;20026;-93
2021/12/01 01:50:37;;;;;;;5.47;3.20;;;9.70;67.40;;;;;;5014127;28;20029;-91
2021/12/01 01:53:07;;;;;;;4.70;3.20;;;10.10;66.00;;;;;;5013391;28;20120;-92
2021/12/01 01:55:39;;;;;;;5.32;3.15;;;9.80;66.50;;;;;;5014376;28;20338;-88
2021/12/01 01:58:05;;;;;;;5.50;3.25;;;9.70;66.50;;;;;;5013944;28;20022;-87
2021/12/01 02:00:35;;;;;;;4.63;2.85;;;9.80;66.00;;;;;;5018815;28;20029;-91
2021/12/01 02:03:04;;;;;;;4.60;3.08;;;9.80;66.20;;;;;;5014592;28;20018;-92
2021/12/01 02:05:30;;;;;;;6.05;2.80;;;9.80;65.90;;;;;;5015422;28;20026;-89
2021/12/01 02:07:57;;;;;;;4.80;2.90;;;10.00;66.40;;;;;;5013440;28;20022;-90
2021/12/01 02:10:23;;;;;;;5.10;2.70;;;10.40;65.30;;;;;;5015304;28;20112;-92
2021/12/01 02:12:48;;;;;;;4.90;2.70;;;10.50;64.60;;;;;;5015529;28;20096;-92
2021/12/01 02:15:16;;;;;;;4.20;2.90;;;10.30;65.10;;;;;;5013901;28;20042;-90
2021/12/01 02:17:42;;;;;;;5.00;2.97;;;10.30;65.40;;;;;;5013832;28;20033;-88
2021/12/01 02:20:16;;;;;;;4.50;2.78;;;10.60;64.50;;;;;;5024223;28;20014;-93
2021/12/01 02:22:42;;;;;;;5.35;2.85;;;10.70;63.90;;;;;;5054182;28;20032;-90
2021/12/01 02:25:08;;;;;;;5.45;3.00;;;10.40;64.40;;;;;;5053856;28;20022;-90
2021/12/01 02:27:34;;;;;;;5.15;3.10;;;10.10;65.10;;;;;;5053650;28;20025;-89
2021/12/01 02:30:00;;;;;;;4.47;2.60;;;9.60;67.10;;;;;;5045087;28;20457;-91
2021/12/01 02:32:25;;;;;;;4.18;2.63;;;9.40;67.80;;;;;;5017053;28;20399;-85
2021/12/01 02:34:54;;;;;;;4.40;2.80;;;9.50;66.80;;;;;;5017188;28;20172;-91
2021/12/01 02:37:23;;;;;;;4.50;2.53;;;9.50;67.40;;;;;;5016785;28;20041;-92
2021/12/01 02:39:52;;;;;;;4.63;2.97;;;9.30;67.90;;;;;;5017445;28;20361;-90
2021/12/01 02:42:20;;;;;;;4.93;3.38;;;9.10;68.00;;;;;;5016829;28;20076;-90
2021/12/01 02:44:46;;;;;;;7.63;5.00;;;9.90;67.20;;;;;;5016738;28;20022;-90
2021/12/01 02:47:12;;;;;;;4.10;2.40;;;10.00;66.10;;;;;;5018034;28;20044;-92
2021/12/01 02:49:38;;;;;;;3.78;2.38;;;10.00;66.50;;;;;;5018762;28;20026;-90
2021/12/01 02:52:04;;;;;;;3.63;2.35;;;10.10;66.60;;;;;;5017079;28;20040;-91
2021/12/01 02:54:33;;;;;;;4.18;3.00;;;10.10;66.10;;;;;;5018130;28;20113;-93
2021/12/01 02:57:00;;;;;;;3.65;2.22;;;10.40;65.60;;;;;;5056133;28;20032;-93
2021/12/01 02:59:26;;;;;;;3.60;2.33;;;10.60;64.90;;;;;;5040172;28;20460;-91
2021/12/01 03:01:55;;;;;;;3.70;2.00;;;10.70;64.10;;;;;;5058970;28;20155;-89
2021/12/01 03:04:22;;;;;;;3.33;1.70;;;11.10;63.40;;;;;;5054825;28;20052;-89
2021/12/01 03:06:49;;;;;;;3.00;1.83;;;10.70;63.90;;;;;;5052008;28;20041;-91
2021/12/01 03:09:16;;;;;;;3.20;1.60;;;10.60;64.90;;;;;;5053856;28;20155;-92
2021/12/01 03:11:43;;;;;;;2.85;1.60;;;11.00;64.00;;;;;;5052304;28;20094;-93
2021/12/01 03:14:11;;;;;;;3.03;1.80;;;10.90;63.40;;;;;;5037861;28;20465;-92
2021/12/01 03:16:37;;;;;;;3.47;1.90;;;11.30;63.00;;;;;;5015979;28;20026;-90
2021/12/01 03:19:02;;;;;;;2.50;1.50;;;10.80;62.50;;;;;;5016206;28;20104;-91
2021/12/01 03:21:28;;;;;;;2.83;1.70;;;10.80;63.60;;;;;;5023614;28;20111;-91
2021/12/01 03:23:54;;;;;;;3.97;1.50;;;10.70;64.10;;;;;;5054026;28;20031;-90
2021/12/01 03:26:20;;;;;;;2.97;1.70;;;11.00;63.10;;;;;;5054271;28;20040;-92
2021/12/01 03:28:46;;;;;;;3.10;1.70;;;11.00;62.40;;;;;;5052678;28;20021;-93
2021/12/01 03:31:11;;;;;;;3.28;1.60;;;11.00;63.30;;;;;;5054273;28;20021;-94
2021/12/01 03:33:37;;;;;;;3.17;1.65;;;11.30;62.50;;;;;;5055373;28;20465;-92
2021/12/01 03:36:04;;;;;;;2.90;1.50;;;11.70;61.90;;;;;;5054368;28;20021;-92
2021/12/01 03:38:30;;;;;;;3.00;1.60;;;11.90;60.80;;;;;;5054118;28;20025;-90
2021/12/01 03:40:56;;;;;;;3.08;1.90;;;11.10;61.10;;;;;;5049424;28;20028;-93
2021/12/01 03:43:23;;;;;;;3.40;1.60;;;10.50;63.70;;;;;;5016084;28;20029;-90
2021/12/01 03:45:49;;;;;;;3.15;1.50;;;10.70;62.80;;;;;;5015139;28;20022;-92
2021/12/01 03:48:15;;;;;;;2.92;1.70;;;11.00;62.80;;;;;;5016159;28;20482;-91
2021/12/01 03:50:42;;;;;;;2.75;1.63;;;11.20;62.30;;;;;;5017602;28;20014;-92
2021/12/01 03:53:08;;;;;;;3.53;1.63;;;11.10;62.70;;;;;;5051912;28;20077;-92
2021/12/01 03:55:35;;;;;;;3.53;1.70;;;10.90;62.20;;;;;;5036771;28;20017;-93
2021/12/01 03:58:02;;;;;;;4.82;1.92;;;11.10;62.10;;;;;;5051137;28;20022;-93
2021/12/01 04:00:29;;;;;;;4.15;1.80;;;11.10;62.50;;;;;;5046620;28;20018;-91
2021/12/01 04:02:54;;;;;;;3.17;1.80;;;11.40;61.40;;;;;;5014965;28;20018;-92
2021/12/01 04:05:20;;;;;;;3.78;1.85;;;10.90;62.60;;;;;;5014528;28;20461;-91
2021/12/01 04:07:46;;;;;;;4.07;1.80;;;10.80;62.80;;;;;;5014494;28;20461;-93
2021/12/01 04:10:15;;;;;;;4.38;2.00;;;11.10;63.00;;;;;;5017403;28;20018;-88
2021/12/01 04:12:41;;;;;;;3.42;1.67;;;10.80;62.10;;;;;;5015710;28;20036;-92
2021/12/01 04:15:09;;;;;;;3.03;1.73;;;10.40;63.70;;;;;;5016834;28;20045;-94
2021/12/01 04:17:34;;;;;;;2.95;1.70;;;10.30;64.30;;;;;;5018242;28;20461;-91
2021/12/01 04:20:03;;;;;;;4.30;1.65;;;10.70;64.00;;;;;;5018365;28;20022;-95
2021/12/01 04:22:29;;;;;;;3.90;1.77;;;11.40;62.70;;;;;;5015019;28;20495;-93
2021/12/01 04:24:54;;;;;;;3.10;1.88;;;11.90;61.20;;;;;;5014977;28;20030;-94
2021/12/01 04:27:20;;;;;;;3.92;2.03;;;11.50;61.10;;;;;;5014824;28;20025;-93
2021/12/01 04:29:46;;;;;;;3.35;1.85;;;11.70;61.70;;;;;;5051926;28;20116;-92
2021/12/01 04:32:12;;;;;;;3.20;1.92;;;11.30;62.60;;;;;;5044393;28;20062;-86
2021/12/01 04:34:38;;;;;;;5.07;2.05;;;10.80;62.40;;;;;;5019611;28;20100;-90
2021/12/01 04:37:05;;;;;;;3.38;2.00;;;10.70;63.60;;;;;;5013997;28;20036;-89
2021/12/01 04:39:33;;;;;;;3.45;2.03;;;10.80;63.80;;;;;;5018643;28;20084;-88
2021/12/01 04:42:06;;;;;;;3.78;2.00;;;11.30;63.80;;;;;;5013640;28;20018;-91
2021/12/01 04:44:34;;;;;;;4.65;2.20;;;11.40;62.50;;;;;;5014414;28;20056;-89
2021/12/01 04:47:02;;;;;;;3.95;2.47;;;11.40;63.00;;;;;;4997982;28;20101;-88
2021/12/01 04:49:30;;;;;;;3.95;2.60;;;11.90;61.70;;;;;;5033000;28;20033;-88
2021/12/01 04:51:58;;;;;;;3.63;2.22;;;12.00;61.90;;;;;;5013595;28;20029;-89
2021/12/01 04:54:25;;;;;;;3.30;2.05;;;12.20;60.70;;;;;;5014681;28;20029;-90
2021/12/01 04:56:52;;;;;;;4.15;2.70;;;12.30;60.80;;;;;;5017582;28;20021;-90
2021/12/01 04:59:19;;;;;;;4.00;2.60;;;12.40;59.80;;;;;;5014081;28;20017;-92
2021/12/01 05:01:45;;;;;;;3.17;2.15;;;12.40;60.10;;;;;;5013423;28;20041;-90
2021/12/01 05:04:12;;;;;;;3.63;2.35;;;12.40;60.10;;;;;;5013293;28;20025;-89
2021/12/01 05:06:38;;;;;;;4.43;2.50;;;12.00;60.20;;;;;;5013316;28;20472;-90
2021/12/01 05:09:05;;;;;;;3.83;2.60;;;11.60;61.50;;;;;;5031092;28;20053;-87
2021/12/01 05:11:31;;;;;;;4.20;2.67;;;11.20;61.80;;;;;;5033112;28;20022;-90
2021/12/01 05:13:57;;;;;;;4.40;2.60;;;11.00;63.20;;;;;;5028528;28;20111;-88
2021/12/01 05:16:23;;;;;;;4.30;2.60;;;11.30;62.50;;;;;;5033229;28;20056;-91
2021/12/01 05:18:49;;;;;;;3.72;2.60;;;11.00;62.60;;;;;;5033169;28;20108;-89
2021/12/01 05:21:15;;;;;;;3.75;2.55;;;11.10;63.50;;;;;;5020826;28;20075;-88
2021/12/01 05:23:41;;;;;;;4.03;2.33;;;11.10;62.60;;;;;;5032666;28;20033;-89
2021/12/01 05:26:09;;;;;;;5.35;2.83;;;11.00;62.90;;;;;;5036135;28;20030;-91
2021/12/01 05:28:35;;;;;;;3.88;2.67;;;11.10;63.30;;;;;;5013119;28;20021;-91
2021/12/01 05:31:01;;;;;;;5.50;2.55;;;11.00;63.50;;;;;;5014868;28;20014;-93
2021/12/01 05:33:27;;;;;;;6.93;3.78;;;11.30;63.10;;;;;;5012323;28;20046;-82
2021/12/01 05:36:00;;;;;;;5.17;2.90;;;11.70;61.90;;;;;;4930092;28;10001274;-88
2021/12/01 05:38:26;;;;;;;3.97;2.63;;;11.40;61.50;;;;;;5033950;28;20328;-92
2021/12/01 05:40:52;;;;;;;3.92;2.58;;;10.70;63.50;;;;;;5044905;28;20677;-92
2021/12/01 05:43:19;;;;;;;6.03;3.15;;;10.70;63.70;;;;;;5014862;28;20113;-91
2021/12/01 05:45:46;;;;;;;10.40;5.65;;;10.80;63.30;;;;;;5007034;28;20025;-92
2021/12/01 05:48:13;;;;;;;5.20;2.92;;;11.00;63.10;;;;;;5046021;28;20030;-90
2021/12/01 05:50:39;;;;;;;5.85;3.40;;;10.90;63.20;;;;;;5013619;28;20429;-93
2021/12/01 05:53:05;;;;;;;5.72;3.80;;;10.80;63.90;;;;;;5013707;28;20117;-94
2021/12/01 05:55:31;;;;;;;4.18;3.03;;;10.90;63.40;;;;;;5017594;28;20025;-91
2021/12/01 05:57:59;;;;;;;4.00;2.67;;;10.80;63.90;;;;;;5017694;28;20021;-92
2021/12/01 06:00:24;;;;;;;4.70;3.30;;;10.50;64.00;;;;;;5017241;28;20018;-91
2021/12/01 06:02:51;;;;;;;5.25;3.28;;;10.30;64.80;;;;;;5020341;28;20026;-92
2021/12/01 06:05:19;;;;;;;4.50;2.53;;;10.50;64.30;;;;;;5017420;28;20033;-87
2021/12/01 06:07:47;;;;;;;5.50;3.00;;;10.30;64.60;;;;;;5018261;28;20037;-92
2021/12/01 06:10:13;;;;;;;5.57;3.40;;;10.50;64.40;;;;;;5020120;28;20453;-92
2021/12/01 06:12:44;;;;;;;4.50;2.95;;;10.60;64.30;;;;;;5019465;28;20041;-92
2021/12/01 06:15:16;;;;;;;5.63;3.47;;;10.70;63.90;;;;;;5022261;28;20060;-94
2021/12/01 06:17:44;;;;;;;6.30;3.85;;;10.90;63.60;;;;;;5020380;28;20432;-90
2021/12/01 06:20:12;;;;;;;5.70;3.75;;;10.90;63.20;;;;;;5018446;28;20169;-91
2021/12/01 06:22:43;;;;;;;5.13;3.40;;;10.60;63.90;;;;;;5018211;28;20022;-92
2021/12/01 06:25:09;;;;;;;4.28;2.90;;;10.70;64.30;;;;;;5016888;28;20469;-93
2021/12/01 06:27:51;;;;;;;4.00;2.60;;;11.00;63.60;;;;;;5016968;28;20026;-88
2021/12/01 06:30:18;;;;;;;4.45;2.60;;;10.90;63.40;;;;;;5017099;28;20389;-91
2021/12/01 06:32:44;;;;;;;5.05;3.40;;;10.50;63.70;;;;;;5017647;28;20030;-92
2021/12/01 06:35:11;;;;;;;4.60;3.05;;;10.50;64.90;;;;;;5024036;28;20022;-94
2021/12/01 06:37:37;;;;;;;4.72;2.92;;;10.40;65.10;;;;;;5020461;28;20026;-90
2021/12/01 06:40:03;;;;;;;5.10;2.50;;;10.50;64.80;;;;;;5017851;28;20476;-91
2021/12/01 06:42:29;;;;;;;4.25;2.70;;;10.30;65.60;;;;;;5018927;28;20460;-91
2021/12/01 06:44:58;;;;;;;3.80;2.58;;;10.10;65.60;;;;;;5019818;28;20527;-93
2021/12/01 06:47:23;;;;;;;5.47;2.95;;;10.10;66.00;;;;;;5018171;28;20026;-95
2021/12/01 06:49:49;;;;;;;4.45;2.90;;;10.10;66.50;;;;;;5015878;28;20048;-92
2021/12/01 06:52:15;;;;;;;6.30;4.00;;;10.30;66.20;;;;;;5016351;28;20072;-92
2021/12/01 06:54:41;;;;;;;3.50;2.40;;;10.70;65.30;;;;;;5015869;28;20018;-90
2021/12/01 06:57:08;;;;;;;4.35;2.83;;;10.70;64.30;;;;;;5015789;28;20014;-94
2021/12/01 06:59:34;;;;;;;3.60;2.25;;;10.70;64.30;;;;;;5015087;28;20152;-93
2021/12/01 07:01:59;;;;;;;3.90;2.50;;;10.60;64.90;;;;;;5015129;28;20056;-95
2021/12/01 07:04:25;;;;;;;3.60;2.08;;;11.00;64.60;;;;;;5014893;28;20346;-93
2021/12/01 07:06:51;;;;;;;5.63;2.70;;;11.50;63.00;;;;;;5014913;28;20025;-96
2021/12/01 07:09:21;;;;;;;5.03;2.60;;;11.90;62.60;;;;;;5015517;28;20080;-90
2021/12/01 07:11:47;;;;;;;5.00;2.90;;;12.20;61.80;;;;;;5015888;28;20076;-94
2021/12/01 07:14:13;;;;;;;6.72;3.88;;;12.20;60.70;;;;;;5018028;28;20049;-94
2021/12/01 07:16:39;;;;;;;7.82;4.32;;;11.80;61.20;;;;;;5019324;28;20365;-96
2021/12/01 07:19:06;;;;;;;4.65;2.38;;;11.00;63.70;;;;;;5020213;28;20022;-94
2021/12/01 07:21:32;;;;;;;9.70;5.85;;;11.10;63.50;;;;;;5018587;28;20137;-86
2021/12/01 07:23:58;;;;;;;3.95;2.53;;;11.40;63.60;;;;;;5014002;28;20032;-93
2021/12/01 07:26:24;;;;;;;5.45;2.63;;;11.60;62.20;;;;;;5014647;28;20093;-88
2021/12/01 07:28:49;;;;;;;6.35;3.00;;;11.70;62.20;;;;;;5015274;28;20469;-90
2021/12/01 07:31:17;;;;;;;5.43;3.17;;;11.50;62.60;;;;;;5014470;28;20018;-91
2021/12/01 07:33:43;;;;;;;5.97;3.75;;;11.40;62.80;;;;;;5014269;28;20030;-95
2021/12/01 07:36:09;;;;;;;6.15;3.78;;;11.70;63.30;;;;;;5014182;28;20030;-89
2021/12/01 07:38:34;;;;;;;5.07;2.85;;;11.80;62.10;;;;;;5030997;28;20412;-95
2021/12/01 07:41:00;;;;;;;5.03;2.72;;;11.90;62.10;;;;;;5014479;28;20072;-95
2021/12/01 07:43:26;;;;;;;5.82;3.65;;;12.10;61.80;;;;;;5013320;28;20026;-94
2021/12/01 07:45:52;;;;;;;5.78;4.00;;;12.60;60.60;;;;;;5012730;28;20022;-96
2021/12/01 07:48:18;;;;;;;5.43;3.33;;;12.90;60.00;;;;;;5014397;28;20080;-96
2021/12/01 07:50:44;;;;;;;5.28;3.63;;;12.40;60.40;;;;;;5021561;28;20026;-93
2021/12/01 07:53:13;;;;;;;7.88;4.80;;;12.00;61.60;;;;;;5016032;28;20033;-90
2021/12/01 07:55:39;;;;;;;6.68;4.10;;;12.10;61.70;;;;;;5013762;28;20096;-95
2021/12/01 07:58:05;;;;;;;7.00;3.63;;;12.40;61.60;;;;;;5017888;28;20414;-94
2021/12/01 08:00:31;;;;;;;6.38;3.38;;;12.60;60.90;;;;;;5015607;28;20022;-91
2021/12/01 08:02:56;;;;;;;5.72;3.33;;;12.90;60.40;;;;;;5016931;28;20021;-93
2021/12/01 08:05:22;;;;;;;4.47;2.92;;;13.00;59.90;;;;;;5016630;28;20412;-96
2021/12/01 08:07:50;;;;;;;3.75;2.15;;;13.20;59.20;;;;;;5019602;28;20112;-92
2021/12/01 08:10:19;;;;;;;4.82;2.70;;;13.40;59.10;;;;;;5024375;28;20014;-89
2021/12/01 08:12:46;;;;;;;3.75;2.13;;;13.20;59.20;;;;;;5023574;28;20108;-93
2021/12/01 08:15:11;;;;;;;5.13;2.92;;;13.20;59.20;;;;;;4682963;28;10000355;-96
2021/12/01 08:17:37;;;;;;;4.95;2.38;;;13.30;59.20;;;;;;5041927;28;20025;-93
2021/12/01 08:20:08;;;;;;;7.30;2.10;;;13.30;59.40;;;;;;5047305;28;20055;-91
2021/12/01 08:22:35;;;;;;;5.18;2.92;;;13.50;58.80;;;;;;5044506;28;20025;-92
2021/12/01 08:25:01;;;;;;;4.10;2.10;;;13.50;58.60;;;;;;5039968;28;20025;-91
2021/12/01 08:27:28;;;;;;;3.75;2.17;;;13.90;58.50;;;;;;5042674;28;20022;-90
2021/12/01 08:29:55;;;;;;;3.78;2.05;;;14.00;58.10;;;;;;5022222;28;20040;-92
2021/12/01 08:32:21;;;;;;;3.60;2.00;;;14.20;57.90;;;;;;5038006;28;20038;-88
2021/12/01 08:34:51;;;;;;;4.38;1.73;;;14.20;57.70;;;;;;5038272;28;20060;-93
2021/12/01 08:37:18;;;;;;;2.95;1.70;;;14.20;58.10;;;;;;5020591;28;20037;-93
2021/12/01 08:39:49;;;;;;;4.70;1.90;;;13.30;59.00;;;;;;5038278;28;20036;-96
2021/12/01 08:42:16;;;;;;;3.67;2.30;;;13.00;61.00;;;;;;5038379;28;20029;-92
2021/12/01 08:44:49;;;;;;;5.82;2.88;;;12.90;61.60;;;;;;5035953;28;20052;-92
2021/12/01 08:47:17;;;;;;;4.90;3.40;;;12.90;62.10;;;;;;5034348;28;20036;-96
2021/12/01 08:49:44;;;;;;;14.60;8.32;;;13.20;62.20;;;;;;5034924;28;20025;-95
2021/12/01 08:52:10;;;;;;;11.00;7.35;;;13.50;61.80;;;;;;5035540;28;20025;-95
2021/12/01 08:54:36;;;;;;;12.35;8.98;;;13.70;61.50;;;;;;5036757;28;20033;-95
2021/12/01 08:57:02;;;;;;;8.45;5.70;;;13.80;61.20;;;;;;5033689;28;20078;-94
2021/12/01 08:59:30;;;;;;;8.35;4.50;;;13.90;61.70;;;;;;5034536;28;20045;-93
2021/12/01 09:01:56;;;;;;;5.43;4.18;;;13.90;61.60;;;;;;5010421;28;20025;-94
2021/12/01 09:04:22;;;;;;;6.78;3.63;;;13.70;62.40;;;;;;5041619;28;20033;-93
2021/12/01 09:06:48;;;;;;;7.32;3.33;;;13.60;62.30;;;;;;5040060;28;20076;-92
2021/12/01 09:09:18;;;;;;;6.28;4.50;;;13.70;62.20;;;;;;5043032;28;20080;-89
2021/12/01 09:11:49;;;;;;;7.05;4.13;;;14.10;62.40;;;;;;5045155;28;20034;-92
2021/12/01 09:14:16;;;;;;;11.40;6.45;;;14.20;62.00;;;;;;5043875;28;20053;-92
2021/12/01 09:16:44;;;;;;;17.27;12.48;;;14.00;62.20;;;;;;5044784;28;20090;-92
2021/12/01 09:19:10;;;;;;;9.57;7.00;;;14.00;62.60;;;;;;5041481;28;20064;-89
2021/12/01 09:21:36;;;;;;;8.15;5.25;;;14.60;61.90;;;;;;5040406;28;20030;-91
2021/12/01 09:24:04;;;;;;;5.80;3.50;;;14.80;61.10;;;;;;5042841;28;20076;-92
2021/12/01 09:26:30;;;;;;;8.27;5.68;;;14.90;60.80;;;;;;5039967;28;20077;-92
2021/12/01 09:28:55;;;;;;;5.43;3.65;;;14.50;61.90;;;;;;5037586;28;20018;-91
2021/12/01 09:31:21;;;;;;;18.10;13.60;;;14.40;62.50;;;;;;5037510;28;20033;-91
2021/12/01 09:33:47;;;;;;;7.20;5.18;;;14.40;62.30;;;;;;5040454;28;20108;-90
2021/12/01 09:36:13;;;;;;;5.05;3.40;;;14.40;62.30;;;;;;5038213;28;20468;-91
2021/12/01 09:38:40;;;;;;;5.05;3.53;;;14.40;62.40;;;;;;5037477;28;20569;-89
2021/12/01 09:41:06;;;;;;;4.60;3.20;;;13.80;63.50;;;;;;5036918;28;20389;-91
2021/12/01 09:43:32;;;;;;;6.90;4.13;;;13.10;65.50;;;;;;5036255;28;20124;-91
2021/12/01 09:46:04;;;;;;;6.40;3.60;;;13.20;65.70;;;;;;5032900;28;20052;-90
2021/12/01 09:48:32;;;;;;;5.22;3.72;;;13.50;65.30;;;;;;5033273;28;20030;-91
2021/12/01 09:50:57;;;;;;;4.85;3.35;;;13.70;64.90;;;;;;5033163;28;20025;-92
2021/12/01 09:53:27;;;;;;;6.20;3.97;;;13.80;64.40;;;;;;5032973;28;20037;-88
2021/12/01 09:55:53;;;;;;;5.90;4.20;;;13.10;65.90;;;;;;5032548;28;20025;-93
2021/12/01 09:58:22;;;;;;;5.68;3.63;;;13.60;65.40;;;;;;5032134;28;20037;-91
2021/12/01 10:00:52;;;;;;;5.85;3.83;;;13.90;65.00;;;;;;5032293;28;20071;-90
2021/12/01 10:03:18;;;;;;;6.70;4.80;;;14.10;64.40;;;;;;5032447;28;20029;-93
2021/12/01 10:06:04;;;;;;;7.38;4.78;;;14.10;64.40;;;;;;5032430;28;20033;-94
2021/12/01 10:08:46;;;;;;;6.38;4.20;;;13.90;64.40;;;;;;5032229;28;20036;-91
2021/12/01 10:11:30;;;;;;;5.63;3.63;;;13.80;64.50;;;;;;5032444;28;20033;-93
2021/12/01 10:14:21;;;;;;;5.63;4.00;;;13.30;65.40;;;;;;5032135;28;20064;-91
2021/12/01 10:16:52;;;;;;;6.50;4.13;;;13.40;65.90;;;;;;5032278;28;20076;-94
2021/12/01 10:19:17;;;;;;;;;;;13.90;65.30;;;;;;5032385;28;20036;-91
2021/12/01 10:21:48;;;;;;;5.97;3.83;;;14.60;63.30;;;;;;5032568;28;19905;-92
2021/12/01 10:24:19;;;;;;;;;;;15.00;62.50;;;;;;5032948;28;20024;-91
2021/12/01 10:26:54;;;;;;;38.45;24.92;;;15.20;60.70;;;;;;5031959;28;19920;-94
2021/12/01 10:29:27;;;;;;;25.63;17.27;;;15.30;61.50;;;;;;5032052;28;20045;-93
2021/12/01 10:32:06;;;;;;;9.52;6.78;;;15.80;60.50;;;;;;5032223;28;20083;-90
2021/12/01 10:34:37;;;;;;;8.40;5.40;;;16.20;60.20;;;;;;5031988;28;20035;-94
2021/12/01 10:37:23;;;;;;;;;;;16.30;59.40;;;;;;5032327;28;20069;-92
2021/12/01 10:40:18;;;;;;;7.22;4.45;;;15.90;59.90;;;;;;5033604;28;19908;-94
2021/12/01 10:43:06;;;;;;;6.38;4.22;;;14.50;62.50;;;;;;5035612;28;20403;-93
2021/12/01 10:45:38;;;;;;;6.00;4.35;;;14.60;62.90;;;;;;5035715;28;20025;-93
2021/12/01 10:48:07;;;;;;;12.57;8.85;;;14.70;62.70;;;;;;5035442;28;20031;-94
2021/12/01 10:50:38;;;;;;;20.55;15.45;;;14.80;62.20;;;;;;5035427;28;20029;-91
2021/12/01 10:53:09;;;;;;;8.95;5.88;;;15.00;62.50;;;;;;5035557;28;20045;-94
2021/12/01 10:55:44;;;;;;;7.80;5.10;;;15.20;61.50;;;;;;5035295;28;20048;-92
2021/12/01 10:58:10;;;;;;;6.18;4.60;;;15.10;61.70;;;;;;5035175;28;20116;-92
2021/12/01 11:00:43;;;;;;;7.10;4.70;;;15.40;61.10;;;;;;5035308;28;20024;-96
2021/12/01 11:03:16;;;;;;;6.97;4.93;;;15.30;60.80;;;;;;5035350;28;20021;-94
2021/12/01 11:05:47;;;;;;;6.75;4.63;;;15.50;61.20;;;;;;5034880;28;20542;-94
2021/12/01 11:08:42;;;;;;;7.70;5.78;;;15.70;60.80;;;;;;5035407;28;20500;-92
2021/12/01 11:11:14;;;;;;;7.10;5.38;;;15.80;60.70;;;;;;5039340;28;20038;-93
2021/12/01 11:13:46;;;;;;;6.93;4.93;;;16.10;60.30;;;;;;5034898;28;20116;-93
2021/12/01 11:16:14;;;;;;;7.05;4.93;;;16.30;60.00;;;;;;5034953;28;20021;-93
2021/12/01 11:18:43;;;;;;;6.97;4.53;;;16.40;59.50;;;;;;5035278;28;20025;-91
2021/12/01 11:21:13;;;;;;;9.05;5.95;;;16.50;59.50;;;;;;5035166;28;20032;-91
2021/12/01 11:24:00;;;;;;;5.18;3.42;;;16.30;59.60;;;;;;5035962;28;20431;-91
2021/12/01 11:26:29;;;;;;;8.80;3.70;;;16.10;58.80;;;;;;5035439;28;20026;-90
2021/12/01 11:29:08;;;;;;;8.50;4.85;;;15.90;59.50;;;;;;5034549;28;20539;-91
2021/12/01 11:31:36;;;;;;;6.43;4.05;;;15.10;60.40;;;;;;5034897;28;20091;-91
2021/12/01 11:34:08;;;;;;;10.35;5.95;;;15.10;61.00;;;;;;5034666;28;20026;-92
2021/12/01 11:36:37;;;;;;;7.63;4.65;;;15.00;61.20;;;;;;5035225;28;20413;-91
2021/12/01 11:39:06;;;;;;;5.03;3.63;;;15.10;61.80;;;;;;5052337;28;20033;-91
2021/12/01 11:41:36;;;;;;;5.82;4.03;;;15.40;61.10;;;;;;5035732;28;20025;-94
2021/12/01 11:44:03;;;;;;;5.30;3.80;;;15.80;60.50;;;;;;5034719;28;20516;-95
2021/12/01 11:46:32;;;;;;;6.38;4.30;;;16.10;60.20;;;;;;5035267;28;20029;-91
2021/12/01 11:49:03;;;;;;;7.57;4.63;;;16.30;59.90;;;;;;5034404;28;20044;-89
2021/12/01 11:51:41;;;;;;;9.90;5.88;;;16.30;59.00;;;;;;5034519;28;20025;-89
2021/12/01 11:54:19;;;;;;;10.55;6.43;;;16.30;59.40;;;;;;5035442;28;20037;-88
2021/12/01 11:57:00;;;;;;;7.88;5.20;;;16.50;59.00;;;;;;5034342;28;20032;-92
2021/12/01 11:59:32;;;;;;;6.88;4.82;;;16.40;58.40;;;;;;5034493;28;20485;-92
2021/12/01 12:01:57;;;;;;;7.35;4.22;;;16.40;58.90;;;;;;5034913;28;20034;-91
2021/12/01 12:04:36;;;;;;;7.35;4.18;;;16.60;58.80;;;;;;5034153;28;20425;-89
2021/12/01 12:07:07;;;;;;;6.00;3.80;;;15.70;59.80;;;;;;5033844;28;20067;-90
2021/12/01 12:09:34;;;;;;;5.97;4.13;;;14.90;61.70;;;;;;5050581;28;20384;-92
2021/12/01 12:11:59;;;;;;;5.95;4.38;;;14.70;62.80;;;;;;5033893;28;20029;-87
2021/12/01 12:14:32;;;;;;;7.43;4.45;;;14.70;62.40;;;;;;5033667;28;20038;-96
2021/12/01 12:33:30;;;;;;;10.45;6.53;;;16.40;59.40;;;;;;5279148;23;20055;-92
2021/12/01 12:36:21;;;;;;;10.38;7.22;;;16.60;58.80;;;;;;4954488;29;20043;-91
2021/12/01 12:39:10;;;;;;;14.93;10.23;;;16.50;59.10;;;;;;4968829;29;20034;-88
2021/12/01 12:42:00;;;;;;;12.05;7.78;;;16.40;59.20;;;;;;4963830;29;20051;-89
2021/12/01 12:44:28;;;;;;;11.65;7.35;;;15.80;60.60;;;;;;4968286;29;20094;-89
2021/12/01 12:47:23;;;;;;;7.95;5.43;;;16.20;59.90;;;;;;4965864;29;20058;-94
2021/12/01 12:50:12;;;;;;;9.45;5.93;;;16.60;59.40;;;;;;4952639;29;20590;-92
2021/12/01 12:52:41;;;;;;;7.07;4.47;;;16.90;58.40;;;;;;4965529;29;20086;-89
2021/12/01 13:44:34;;;;;;;6.90;4.88;;;17.50;57.50;;;;;;4975095;23;20063;-89
2021/12/01 14:40:29;;;;;;;56.60;24.10;;;15.70;58.30;;;;;;5510589;23;20061;-96
2021/12/01 14:42:57;;;;;;;24.60;12.50;;;15.50;59.00;;;;;;4966877;28;20031;-89
2021/12/01 14:45:25;;;;;;;30.98;13.63;;;15.30;59.20;;;;;;4971667;28;20038;-89
2021/12/01 14:48:08;;;;;;;66.60;26.75;;;15.50;59.90;;;;;;4990378;28;20023;-87
2021/12/01 14:50:37;;;;;;;39.50;16.30;;;14.90;61.00;;;;;;4970009;28;20085;-89
2021/12/01 14:53:09;;;;;;;23.55;12.45;;;14.80;61.90;;;;;;4970078;28;20039;-89
2021/12/01 14:55:37;;;;;;;18.40;12.00;;;15.00;61.40;;;;;;4953814;28;20031;-90
2021/12/01 14:58:17;;;;;;;66.28;33.03;;;15.30;60.80;;;;;;4968971;28;20077;-89
2021/12/01 15:00:57;;;;;;;97.65;51.67;;;15.50;60.20;;;;;;4953325;28;20031;-94
2021/12/01 15:03:26;;;;;;;68.47;33.33;;;15.80;59.90;;;;;;4966256;28;20482;-91